createdAt,value
2019-03-28T00:00:34.247Z,102196.11
2019-03-28T00:03:08.266Z,102194.45
2019-03-28T00:05:41.010Z,102193.05
2019-03-28T00:08:13.634Z,102202.80
2019-03-28T00:10:46.406Z,102196.31
2019-03-28T00:13:19.321Z,102196.67
2019-03-28T00:15:53.529Z,102195.28
2019-03-28T00:18:26.360Z,102192.59
2019-03-28T00:21:02.068Z,102188.17
2019-03-28T00:23:55.281Z,102184.72
2019-03-28T00:26:37.699Z,102179.88
2019-03-28T00:29:07.027Z,102185.95
2019-03-28T00:31:41.377Z,102187.66
2019-03-28T00:34:17.099Z,102186.31
2019-03-28T00:36:49.917Z,102183.75
2019-03-28T00:39:28.430Z,102181.06
2019-03-28T00:42:06.299Z,102181.92
2019-03-28T00:44:43.481Z,102178.84
2019-03-28T00:47:27.369Z,102184.19
2019-03-28T00:50:00.184Z,102177.62
2019-03-28T00:52:35.324Z,102176.33
2019-03-28T00:55:08.333Z,102181.56
2019-03-28T00:57:42.323Z,102183.45
2019-03-28T01:00:16.340Z,102179.84
2019-03-28T01:02:49.113Z,102179.84
2019-03-28T01:05:21.804Z,102175.02
2019-03-28T01:07:59.598Z,102182.05
2019-03-28T01:10:33.913Z,102186.47
2019-03-28T01:13:06.730Z,102183.34
2019-03-28T01:15:41.068Z,102181.16
2019-03-28T01:18:13.851Z,102185.38
2019-03-28T01:20:46.616Z,102183.98
2019-03-28T01:23:21.878Z,102181.84
2019-03-28T01:25:54.664Z,102182.19
2019-03-28T01:28:27.496Z,102185.77
2019-03-28T01:31:00.250Z,102176.91
2019-03-28T01:33:32.970Z,102177.25
2019-03-28T01:36:07.444Z,102174.63
2019-03-28T01:38:40.096Z,102176.84
2019-03-28T01:41:12.898Z,102181.50
2019-03-28T01:43:45.612Z,102174.90
2019-03-28T01:46:18.496Z,102173.11
2019-03-28T01:48:55.185Z,102173.15
2019-03-28T01:51:28.008Z,102172.58
2019-03-28T01:54:03.745Z,102170.78
2019-03-28T01:56:39.214Z,102172.05
2019-03-28T01:59:14.780Z,102169.15
2019-03-28T02:01:49.100Z,102168.20
2019-03-28T02:04:24.870Z,102169.55
2019-03-28T02:06:59.960Z,102165.91
2019-03-28T02:09:32.758Z,102168.62
2019-03-28T02:12:09.240Z,102174.80
2019-03-28T02:14:46.553Z,102169.98
2019-03-28T02:17:25.134Z,102164.23
2019-03-28T02:20:04.754Z,102168.65
2019-03-28T02:22:42.703Z,102170.70
2019-03-28T02:25:15.501Z,102166.77
2019-03-28T02:27:52.707Z,102173.41
2019-03-28T02:30:35.049Z,102167.75
2019-03-28T02:33:07.737Z,102169.86
2019-03-28T02:35:40.550Z,102171.18
2019-03-28T02:38:14.200Z,102172.05
2019-03-28T02:40:53.468Z,102175.77
2019-03-28T02:43:28.998Z,102176.45
2019-03-28T02:46:03.233Z,102174.81
2019-03-28T02:48:38.450Z,102174.33
2019-03-28T02:51:11.343Z,102174.36
2019-03-28T02:53:45.483Z,102171.61
2019-03-28T02:56:21.033Z,102169.00
2019-03-28T02:58:55.357Z,102174.70
2019-03-28T03:01:30.315Z,102171.38
2019-03-28T03:04:05.475Z,102175.24
2019-03-28T03:06:38.320Z,102173.94
2019-03-28T03:09:14.097Z,102171.28
2019-03-28T03:11:49.103Z,102172.14
2019-03-28T03:14:21.770Z,102173.49
2019-03-28T03:16:56.340Z,102172.98
2019-03-28T03:19:29.055Z,102172.06
2019-03-28T03:22:02.827Z,102174.42
2019-03-28T03:24:36.194Z,102166.91
2019-03-28T03:27:09.253Z,102177.75
2019-03-28T03:29:42.960Z,102179.61
2019-03-28T03:32:15.618Z,102177.77
2019-03-28T03:34:48.389Z,102182.72
2019-03-28T03:37:21.118Z,102180.06
2019-03-28T03:39:53.781Z,102183.56
2019-03-28T03:42:26.491Z,102182.39
2019-03-28T03:44:59.182Z,102187.54
2019-03-28T03:47:31.959Z,102184.00
2019-03-28T03:50:05.091Z,102186.33
2019-03-28T03:52:37.791Z,102190.61
2019-03-28T03:55:10.548Z,102181.84
2019-03-28T03:57:43.260Z,102182.65
2019-03-28T04:00:20.429Z,102186.70
2019-03-28T04:02:53.063Z,102189.30
2019-03-28T04:05:25.783Z,102181.78
2019-03-28T04:07:59.343Z,102189.31
2019-03-28T04:10:32.669Z,102178.72
2019-03-28T04:13:06.464Z,102183.91
2019-03-28T04:15:39.205Z,102186.63
2019-03-28T04:18:11.872Z,102190.13
2019-03-28T04:20:44.516Z,102191.94
2019-03-28T04:23:17.257Z,102194.49
2019-03-28T04:25:49.953Z,102195.46
2019-03-28T04:28:31.383Z,102193.30
2019-03-28T04:30:57.135Z,102200.81
2019-03-28T04:33:29.888Z,102202.05
2019-03-28T04:36:02.529Z,102205.66
2019-03-28T04:38:35.267Z,102203.40
2019-03-28T04:41:07.915Z,102207.78
2019-03-28T04:43:40.709Z,102205.60
2019-03-28T04:46:13.415Z,102205.25
2019-03-28T04:48:46.307Z,102204.82
2019-03-28T04:51:19.044Z,102202.19
2019-03-28T04:53:51.831Z,102208.75
2019-03-28T04:56:24.591Z,102203.50
2019-03-28T04:58:58.260Z,102207.46
2019-03-28T05:04:34.139Z,102205.37
2019-03-28T05:07:07.578Z,102212.41
2019-03-28T05:09:41.332Z,102216.74
2019-03-28T05:12:14.852Z,102217.25
2019-03-28T05:14:48.139Z,102219.14
2019-03-28T05:17:21.180Z,102221.71
2019-03-28T05:19:54.340Z,102223.01
2019-03-28T05:22:27.466Z,102226.61
2019-03-28T05:25:00.786Z,102225.31
2019-03-28T05:27:33.906Z,102227.88
2019-03-28T05:30:10.045Z,102224.84
2019-03-28T05:32:45.917Z,102233.20
2019-03-28T05:35:18.914Z,102238.59
2019-03-28T05:37:53.803Z,102235.03
2019-03-28T05:40:27.583Z,102245.66
2019-03-28T05:43:01.563Z,102242.04
2019-03-28T05:45:34.471Z,102243.41
2019-03-28T05:48:07.290Z,102248.78
2019-03-28T05:50:40.084Z,102246.98
2019-03-28T05:53:13.031Z,102248.78
2019-03-28T05:55:45.902Z,102246.23
2019-03-28T05:58:18.748Z,102248.90
2019-03-28T06:00:51.583Z,102256.84
2019-03-28T06:03:24.535Z,102251.15
2019-03-28T06:05:57.444Z,102258.19
2019-03-28T06:08:30.200Z,102259.98
2019-03-28T06:11:03.193Z,102263.55
2019-03-28T06:13:35.988Z,102263.01
2019-03-28T06:16:08.683Z,102271.39
2019-03-28T06:18:41.500Z,102274.97
2019-03-28T06:21:14.194Z,102277.53
2019-03-28T06:23:46.852Z,102285.45
2019-03-28T06:26:19.635Z,102280.30
2019-03-28T06:28:52.383Z,102283.41
2019-03-28T06:31:25.271Z,102282.12
2019-03-28T06:33:58.104Z,102287.01
2019-03-28T06:36:35.478Z,102286.73
2019-03-28T06:39:14.344Z,102288.08
2019-03-28T06:41:51.529Z,102290.81
2019-03-28T06:44:24.257Z,102292.66
2019-03-28T06:46:57.346Z,102290.93
2019-03-28T06:49:31.749Z,102296.75
2019-03-28T06:52:09.981Z,102294.13
2019-03-28T06:54:43.018Z,102297.72
2019-03-28T06:57:18.938Z,102292.95
2019-03-28T06:59:51.422Z,102297.97
2019-03-28T07:02:27.204Z,102295.86
2019-03-28T07:05:00.030Z,102299.84
2019-03-28T07:07:33.162Z,102304.57
2019-03-28T07:10:10.550Z,102308.48
2019-03-28T07:12:47.677Z,102309.85
2019-03-28T07:15:20.590Z,102312.93
2019-03-28T07:17:53.680Z,102312.88
2019-03-28T07:20:26.605Z,102320.00
2019-03-28T07:23:00.968Z,102314.28
2019-03-28T07:25:36.510Z,102310.76
2019-03-28T07:28:09.533Z,102319.04
2019-03-28T07:30:42.592Z,102316.33
2019-03-28T07:33:16.975Z,102316.85
2019-03-28T07:35:50.737Z,102316.90
2019-03-28T07:38:23.419Z,102320.99
2019-03-28T07:40:59.259Z,102321.48
2019-03-28T07:43:32.049Z,102319.75
2019-03-28T07:46:05.037Z,102315.88
2019-03-28T07:48:37.837Z,102318.64
2019-03-28T07:52:03.462Z,102324.50
2019-03-28T07:54:54.277Z,102326.73
2019-03-28T07:57:46.789Z,102323.69
2019-03-28T08:00:19.587Z,102328.58
2019-03-28T08:02:54.876Z,102316.73
2019-03-28T08:05:28.079Z,102320.69
2019-03-28T08:08:01.215Z,102323.72
2019-03-28T08:10:34.299Z,102326.77
2019-03-28T08:13:14.093Z,102329.47
2019-03-28T08:15:59.667Z,102325.53
2019-03-28T08:19:07.986Z,102328.18
2019-03-28T08:21:44.676Z,102260.75
2019-03-28T08:24:22.510Z,102335.05
2019-03-28T08:26:59.691Z,102342.55
2019-03-28T08:29:34.010Z,102339.86
2019-03-28T08:32:15.006Z,102347.77
2019-03-28T08:34:50.921Z,102342.03
2019-03-28T08:37:27.212Z,102351.22
2019-03-28T08:40:10.059Z,102353.86
2019-03-28T08:42:44.714Z,102354.38
2019-03-28T08:45:18.996Z,102352.30
2019-03-28T08:47:52.088Z,102350.69
2019-03-28T08:50:24.964Z,102340.77
2019-03-28T08:52:57.914Z,102344.36
2019-03-28T08:55:31.230Z,102349.23
2019-03-28T08:58:33.912Z,102363.31
2019-03-28T09:01:30.353Z,102358.98
2019-03-28T09:04:03.247Z,102356.45
2019-03-28T09:06:36.105Z,102360.94
2019-03-28T09:09:11.513Z,102358.28
2019-03-28T09:11:44.380Z,102355.96
2019-03-28T09:14:34.353Z,102351.52
2019-03-28T09:17:08.110Z,102346.30
2019-03-28T09:19:48.188Z,102349.41
2019-03-28T09:22:21.016Z,102356.02
2019-03-28T09:24:53.804Z,102356.48
2019-03-28T09:27:26.590Z,102362.99
2019-03-28T09:29:59.365Z,102364.71
2019-03-28T09:32:35.686Z,102356.34
2019-03-28T09:35:09.702Z,102361.24
2019-03-28T09:37:42.592Z,102360.79
2019-03-28T09:40:15.372Z,102362.47
2019-03-28T09:42:48.324Z,102358.01
2019-03-28T09:45:21.248Z,102362.91
2019-03-28T09:47:54.130Z,102373.52
2019-03-28T09:50:27.211Z,102367.30
2019-03-28T09:53:00.743Z,102369.22
2019-03-28T09:55:34.220Z,102367.09
2019-03-28T09:58:22.778Z,102362.73
2019-03-28T10:01:02.799Z,102366.77
2019-03-28T10:03:34.239Z,102369.41
2019-03-28T10:06:07.202Z,102371.19
2019-03-28T10:08:39.968Z,102377.35
2019-03-28T10:11:12.762Z,102376.00
2019-03-28T10:13:45.647Z,102376.86
2019-03-28T10:16:18.549Z,102368.84
2019-03-28T10:18:51.336Z,102379.40
2019-03-28T10:21:24.115Z,102380.72
2019-03-28T10:23:56.902Z,102379.89
2019-03-28T10:26:29.701Z,102372.87
2019-03-28T10:29:02.584Z,102372.39
2019-03-28T10:31:35.670Z,102364.85
2019-03-28T10:34:08.552Z,102361.85
2019-03-28T10:36:41.304Z,102358.35
2019-03-28T10:39:14.225Z,102357.05
2019-03-28T10:41:47.450Z,102360.59
2019-03-28T10:44:20.360Z,102369.40
2019-03-28T10:46:53.199Z,102367.66
2019-03-28T10:49:26.076Z,102376.94
2019-03-28T10:52:04.180Z,102376.89
2019-03-28T10:54:40.584Z,102382.65
2019-03-28T10:57:28.706Z,102382.64
2019-03-28T10:59:48.124Z,102388.91
2019-03-28T11:02:21.045Z,102383.16
2019-03-28T11:05:21.276Z,102380.02
2019-03-28T11:07:54.510Z,102379.92
2019-03-28T11:10:30.404Z,102378.15
2019-03-28T11:13:42.619Z,102384.61
2019-03-28T11:16:18.322Z,102383.28
2019-03-28T11:18:53.687Z,102389.79
2019-03-28T11:21:50.213Z,102387.17
2019-03-28T11:24:26.878Z,102383.17
2019-03-28T11:27:02.787Z,102384.28
2019-03-28T11:29:36.941Z,102383.80
2019-03-28T11:32:09.763Z,102379.81
2019-03-28T11:34:44.414Z,102379.03
2019-03-28T11:37:25.959Z,102376.91
2019-03-28T11:39:57.893Z,102384.45
2019-03-28T11:42:34.337Z,102388.45
2019-03-28T11:45:09.478Z,102383.55
2019-03-28T11:47:44.365Z,102385.30
2019-03-28T11:50:17.742Z,102382.63
2019-03-28T11:52:51.742Z,102381.34
2019-03-28T11:55:24.677Z,102380.50
2019-03-28T11:57:57.492Z,102375.59
2019-03-28T12:00:30.461Z,102380.78
2019-03-28T12:03:03.353Z,102375.94
2019-03-28T12:05:36.297Z,102374.69
2019-03-28T12:08:10.317Z,102376.05
2019-03-28T12:10:43.157Z,102382.70
2019-03-28T12:13:17.367Z,102381.36
2019-03-28T12:15:50.914Z,102381.82
2019-03-28T12:18:25.205Z,102386.66
2019-03-28T12:20:58.325Z,102382.69
2019-03-28T12:23:31.199Z,102385.31
2019-03-28T12:26:05.315Z,102388.86
2019-03-28T12:28:38.167Z,102386.20
2019-03-28T12:31:10.970Z,102383.13
2019-03-28T12:33:43.791Z,102386.64
2019-03-28T12:36:16.686Z,102395.52
2019-03-28T12:38:49.990Z,102402.63
2019-03-28T12:41:22.771Z,102401.73
2019-03-28T12:43:55.629Z,102402.58
2019-03-28T12:46:28.533Z,102413.20
2019-03-28T12:49:01.425Z,102419.38
2019-03-28T12:51:34.269Z,102415.73
2019-03-28T12:54:14.324Z,102412.19
2019-03-28T12:56:47.202Z,102418.39
2019-03-28T12:59:20.027Z,102417.00
2019-03-28T13:01:55.139Z,102417.77
2019-03-28T13:04:27.435Z,102420.05
2019-03-28T13:07:00.247Z,102414.85
2019-03-28T13:09:33.255Z,102423.28
2019-03-28T13:12:08.205Z,102420.64
2019-03-28T13:14:41.071Z,102421.52
2019-03-28T13:17:14.026Z,102424.18
2019-03-28T13:19:47.056Z,102421.52
2019-03-28T13:22:19.876Z,102425.02
2019-03-28T13:24:55.940Z,102417.95
2019-03-28T13:27:28.762Z,102423.24
2019-03-28T13:30:02.286Z,102417.14
2019-03-28T13:32:41.780Z,102421.59
2019-03-28T13:35:10.788Z,102417.63
2019-03-28T13:37:43.574Z,102422.05
2019-03-28T13:40:17.182Z,102419.86
2019-03-28T13:42:52.862Z,102422.48
2019-03-28T13:45:27.568Z,102430.31
2019-03-28T13:48:05.620Z,102291.58
2019-03-28T13:50:38.574Z,102430.63
2019-03-28T13:53:13.232Z,102431.02
2019-03-28T13:55:46.167Z,102430.20
2019-03-28T13:58:18.894Z,102429.39
2019-03-28T14:00:54.423Z,102424.18
2019-03-28T14:03:26.260Z,102416.32
2019-03-28T14:05:59.371Z,102418.09
2019-03-28T14:08:38.328Z,102416.31
2019-03-28T14:11:18.647Z,102416.78
2019-03-28T14:13:51.526Z,102418.54
2019-03-28T14:16:24.372Z,102421.17
2019-03-28T14:18:57.318Z,102419.38
2019-03-28T14:21:36.574Z,102423.37
2019-03-28T14:24:12.382Z,102422.94
2019-03-28T14:26:45.325Z,102417.13
2019-03-28T14:29:20.495Z,102426.87
2019-03-28T14:32:10.414Z,102424.18
2019-03-28T14:34:49.514Z,102412.69
2019-03-28T14:37:22.469Z,102414.50
2019-03-28T14:39:56.802Z,102412.31
2019-03-28T14:42:32.449Z,102416.28
2019-03-28T14:45:05.738Z,102411.45
2019-03-28T14:47:38.759Z,102419.38
2019-03-28T14:50:15.173Z,102412.27
2019-03-28T14:52:48.135Z,102413.14
2019-03-28T14:55:21.386Z,102412.65
2019-03-28T14:58:11.563Z,102417.09
2019-03-28T15:00:58.405Z,102414.42
2019-03-28T15:03:34.928Z,102425.03
2019-03-28T15:06:12.045Z,102421.00
2019-03-28T15:09:19.001Z,102421.86
2019-03-28T15:11:30.546Z,102422.27
2019-03-28T15:14:48.729Z,102430.67
2019-03-28T15:18:33.997Z,102430.18
2019-03-28T15:22:21.789Z,102435.43
2019-03-28T15:41:55.134Z,102437.20
2019-03-28T15:44:29.797Z,102445.51
2019-03-28T15:47:34.085Z,102444.98
2019-03-28T15:50:15.696Z,102447.11
2019-03-28T15:53:13.415Z,102447.94
2019-03-28T15:59:37.283Z,102451.36
2019-03-28T16:02:11.310Z,102443.94
2019-03-28T16:04:44.491Z,102439.98
2019-03-28T16:07:18.276Z,102446.16
2019-03-28T16:09:52.088Z,102444.40
2019-03-28T16:12:31.252Z,102439.17
2019-03-28T16:15:22.502Z,102434.28
2019-03-28T16:18:00.276Z,102430.36
2019-03-28T16:20:34.539Z,102433.08
2019-03-28T16:23:10.720Z,102435.29
2019-03-28T16:25:44.185Z,102443.67
2019-03-28T16:28:18.864Z,102442.80
2019-03-28T16:30:51.953Z,102439.66
2019-03-28T16:33:29.344Z,102448.47
2019-03-28T16:36:02.518Z,102445.41
2019-03-28T16:38:39.430Z,102440.53
2019-03-28T16:41:27.689Z,102438.75
2019-03-28T16:44:00.711Z,102440.02
2019-03-28T16:46:34.281Z,102445.73
2019-03-28T16:49:10.694Z,102447.48
2019-03-28T16:51:44.773Z,102455.73
2019-03-28T16:54:17.573Z,102459.69
2019-03-28T16:56:50.365Z,102460.09
2019-03-28T16:59:24.555Z,102459.73
2019-03-28T17:01:57.946Z,102461.42
2019-03-28T17:04:30.910Z,102464.05
2019-03-28T17:07:09.002Z,102459.64
2019-03-28T17:09:42.392Z,102466.67
2019-03-28T17:12:15.696Z,102468.38
2019-03-28T17:14:51.823Z,102472.27
2019-03-28T17:17:24.951Z,102468.34
2019-03-28T17:19:59.846Z,102471.35
2019-03-28T17:22:32.968Z,102468.63
2019-03-28T17:25:24.464Z,102463.70
2019-03-28T17:28:01.155Z,102467.58
2019-03-28T17:30:34.105Z,102468.08
2019-03-28T17:33:07.014Z,102468.91
2019-03-28T17:35:39.897Z,102476.89
2019-03-28T17:38:16.759Z,102481.67
2019-03-28T17:40:52.972Z,102487.50
2019-03-28T17:43:25.966Z,102494.09
2019-03-28T17:55:08.424Z,102507.61
2019-03-28T17:57:41.441Z,102505.85
2019-03-28T18:00:15.885Z,102511.91
2019-03-28T18:02:48.673Z,102511.92
2019-03-28T18:05:21.608Z,102517.70
2019-03-28T18:07:54.397Z,102511.00
2019-03-28T18:10:27.162Z,102515.30
2019-03-28T18:13:00.888Z,102512.66
2019-03-28T18:15:33.944Z,102512.17
2019-03-28T18:18:06.712Z,102518.72
2019-03-28T18:20:39.673Z,102526.60
2019-03-28T18:23:12.551Z,102520.06
2019-03-28T18:25:47.818Z,102530.72
2019-03-28T18:28:20.602Z,102530.66
2019-03-28T18:30:53.837Z,102530.16
2019-03-28T18:33:26.638Z,102533.28
2019-03-28T18:36:00.080Z,102535.44
2019-03-28T18:38:33.589Z,102535.52
2019-03-28T18:41:06.507Z,102543.41
2019-03-28T18:43:42.436Z,102537.58
2019-03-28T18:46:15.304Z,102544.63
2019-03-28T18:48:48.136Z,102546.84
2019-03-28T18:51:22.155Z,102543.41
2019-03-28T18:53:55.011Z,102544.66
2019-03-28T18:56:28.127Z,102547.70
2019-03-28T18:59:08.316Z,102551.72
2019-03-28T19:01:40.157Z,102551.20
2019-03-28T19:04:15.386Z,102554.74
2019-03-28T19:06:48.695Z,102558.71
2019-03-28T19:09:22.120Z,102559.63
2019-03-28T19:11:56.141Z,102557.41
2019-03-28T19:14:31.760Z,102565.30
2019-03-28T19:17:05.120Z,102560.91
2019-03-28T19:19:39.742Z,102555.66
2019-03-28T19:22:13.179Z,102554.74
2019-03-28T19:24:46.566Z,102552.64
2019-03-28T19:27:21.314Z,102556.98
2019-03-28T19:29:54.607Z,102559.20
2019-03-28T19:32:30.087Z,102559.55
2019-03-28T19:35:03.536Z,102553.75
2019-03-28T19:37:37.798Z,102557.34
2019-03-28T19:40:13.372Z,102556.95
2019-03-28T19:42:46.388Z,102559.66
2019-03-28T19:45:39.351Z,102561.89
2019-03-28T19:48:23.641Z,102558.82
2019-03-28T19:51:09.343Z,102561.02
2019-03-28T19:53:42.205Z,102561.00
2019-03-28T19:56:15.074Z,102561.00
2019-03-28T19:58:47.745Z,102564.10
2019-03-28T20:01:20.485Z,102572.98
2019-03-28T20:03:53.295Z,102572.09
2019-03-28T20:06:26.363Z,102572.09
2019-03-28T20:09:00.697Z,102575.11
2019-03-28T20:11:35.329Z,102576.44
2019-03-28T20:14:08.352Z,102580.72
2019-03-28T20:16:41.587Z,102577.33
2019-03-28T20:19:17.745Z,102578.65
2019-03-28T20:21:51.110Z,102580.08
2019-03-28T20:24:25.416Z,102579.65
2019-03-28T20:26:59.967Z,102581.86
2019-03-28T20:29:33.513Z,102589.15
2019-03-28T20:32:08.380Z,102584.78
2019-03-28T20:34:42.874Z,102591.17
2019-03-28T20:37:16.328Z,102588.74
2019-03-28T20:39:51.474Z,102590.44
2019-03-28T20:42:24.308Z,102592.63
2019-03-28T20:44:58.450Z,102595.68
2019-03-28T20:47:32.422Z,102589.80
2019-03-28T20:50:07.882Z,102592.84
2019-03-28T20:52:40.714Z,102590.22
2019-03-28T20:55:13.702Z,102595.48
2019-03-28T20:57:46.564Z,102590.66
2019-03-28T21:00:36.394Z,102598.24
2019-03-28T21:03:09.289Z,102593.76
2019-03-28T21:05:42.370Z,102596.00
2019-03-28T21:08:15.872Z,102597.87
2019-03-28T21:10:48.655Z,102600.51
2019-03-28T21:13:21.379Z,102601.80
2019-03-28T21:15:54.258Z,102601.83
2019-03-28T21:18:27.151Z,102599.99
2019-03-28T21:21:00.120Z,102594.70
2019-03-28T21:23:33.416Z,102593.90
2019-03-28T21:29:10.074Z,102588.55
2019-03-28T21:31:49.689Z,102599.13
2019-03-28T21:34:17.543Z,102593.11
2019-03-28T21:36:50.342Z,102597.00
2019-03-28T21:39:23.277Z,102591.17
2019-03-28T21:41:55.971Z,102591.58
2019-03-28T21:44:28.779Z,102591.61
2019-03-28T21:47:01.716Z,102588.84
2019-03-28T21:49:34.987Z,102593.67
2019-03-28T21:52:08.126Z,102591.06
2019-03-28T21:54:40.942Z,102583.96
2019-03-28T21:57:14.746Z,102588.80
2019-03-28T21:59:48.305Z,102583.50
2019-03-28T22:02:24.757Z,102577.36
2019-03-28T22:04:57.960Z,102583.07
2019-03-28T22:07:30.948Z,102579.67
2019-03-28T22:10:03.834Z,102585.94
2019-03-28T22:12:36.691Z,102574.98
2019-03-28T22:15:10.468Z,102581.94
2019-03-28T22:17:43.389Z,102585.10
2019-03-28T22:20:16.518Z,102586.23
2019-03-28T22:22:50.196Z,102589.17
2019-03-28T22:25:25.350Z,102589.39
2019-03-28T22:27:58.444Z,102585.95
2019-03-28T22:30:31.491Z,102581.86
2019-03-28T22:33:04.411Z,102583.70
2019-03-28T22:35:37.354Z,102583.58
2019-03-28T22:38:10.129Z,102581.89
2019-03-28T22:40:43.954Z,102580.94
2019-03-28T22:43:17.045Z,102591.05
2019-03-28T22:45:49.934Z,102583.06
2019-03-28T22:48:22.709Z,102592.37
2019-03-28T22:50:55.529Z,102590.13
2019-03-28T22:53:28.321Z,102588.28
2019-03-28T22:56:01.129Z,102587.83
2019-03-28T22:58:34.354Z,102592.25
2019-03-28T23:01:07.949Z,102590.06
2019-03-28T23:03:40.788Z,102595.91
2019-03-28T23:06:13.551Z,102598.58
2019-03-28T23:08:46.329Z,102598.33
2019-03-28T23:11:18.987Z,102600.45
2019-03-28T23:13:54.785Z,102601.28
2019-03-28T23:16:28.216Z,102601.34
2019-03-28T23:19:01.484Z,102604.91
2019-03-28T23:21:34.189Z,102606.22
2019-03-28T23:24:06.820Z,102603.55
2019-03-28T23:26:39.643Z,102605.30
2019-03-28T23:29:12.509Z,102599.92
2019-03-28T23:31:45.313Z,102593.72
2019-03-28T23:34:18.053Z,102596.80
2019-03-28T23:36:50.873Z,102597.16
2019-03-28T23:39:23.597Z,102594.03
2019-03-28T23:41:56.306Z,102589.17
2019-03-28T23:44:29.087Z,102592.25
2019-03-28T23:47:01.803Z,102594.89
2019-03-28T23:49:34.489Z,102601.46
2019-03-28T23:52:07.209Z,102603.18
2019-03-28T23:54:39.974Z,102607.61
2019-03-28T23:57:12.685Z,102606.31
2019-03-28T23:59:45.477Z,102599.75
